createdAt,value
2023-03-06T00:00:38.321Z,100020.47
2023-03-06T00:03:07.351Z,100011.38
2023-03-06T00:05:35.114Z,100014.19
2023-03-06T00:08:03.571Z,100016.47
2023-03-06T00:10:32.842Z,100019.06
2023-03-06T00:13:04.829Z,100017.25
2023-03-06T00:15:33.450Z,100016.16
2023-03-06T00:18:04.426Z,100010.75
2023-03-06T00:20:33.717Z,100008.19
2023-03-06T00:23:02.312Z,100005.34
2023-03-06T00:25:30.113Z,100007.88
2023-03-06T00:27:58.232Z,100008.88
2023-03-06T00:30:26.057Z,100009.91
2023-03-06T00:32:54.488Z,100007.88
2023-03-06T00:35:24.293Z,100004.19
2023-03-06T00:37:52.026Z,100004.75
2023-03-06T00:40:21.670Z,100000.50
2023-03-06T00:42:49.640Z,100006.22
2023-03-06T00:45:17.835Z,100005.69
2023-03-06T00:47:45.688Z,100003.81
2023-03-06T00:50:13.992Z,100010.00
2023-03-06T00:52:42.190Z,100003.00
2023-03-06T00:55:11.209Z,99996.28
2023-03-06T00:57:39.209Z,99999.34
2023-03-06T01:00:08.345Z,99996.22
2023-03-06T01:02:36.365Z,99995.41
2023-03-06T01:05:04.797Z,99995.91
2023-03-06T01:07:36.557Z,99989.94
2023-03-06T01:10:06.251Z,99991.75
2023-03-06T01:12:34.174Z,99987.34
2023-03-06T01:15:01.877Z,99987.56
2023-03-06T01:17:30.057Z,99978.50
2023-03-06T01:19:58.302Z,99980.56
2023-03-06T01:22:26.135Z,99980.00
2023-03-06T01:24:54.225Z,99974.53
2023-03-06T01:27:22.211Z,99969.00
2023-03-06T01:29:50.070Z,99967.22
2023-03-06T01:32:18.139Z,99967.47
2023-03-06T01:34:45.843Z,99963.53
2023-03-06T01:37:13.515Z,99964.34
2023-03-06T01:39:42.055Z,99960.19
2023-03-06T01:42:09.850Z,99961.75
2023-03-06T01:44:37.632Z,99961.97
2023-03-06T01:47:05.712Z,99963.78
2023-03-06T01:49:36.866Z,99966.84
2023-03-06T01:52:28.665Z,99959.31
2023-03-06T01:55:08.629Z,99960.81
2023-03-06T01:57:48.627Z,99972.47
2023-03-06T02:00:23.866Z,99963.06
2023-03-06T02:03:05.780Z,99964.66
2023-03-06T02:05:33.746Z,99966.69
2023-03-06T02:08:04.071Z,99967.59
2023-03-06T02:10:31.861Z,99971.47
2023-03-06T02:13:00.093Z,99969.19
2023-03-06T02:15:29.868Z,99977.63
2023-03-06T02:18:00.434Z,99978.34
2023-03-06T02:20:35.621Z,99984.53
2023-03-06T02:23:10.778Z,99982.94
2023-03-06T02:25:42.393Z,99983.75
2023-03-06T02:28:14.130Z,99991.25
2023-03-06T02:30:45.204Z,99987.00
2023-03-06T02:33:15.738Z,99988.59
2023-03-06T02:35:58.621Z,99986.69
2023-03-06T02:38:35.209Z,99989.41
2023-03-06T02:41:06.496Z,99982.78
2023-03-06T02:43:36.700Z,99992.09
2023-03-06T02:46:05.400Z,99986.94
2023-03-06T02:48:34.016Z,99986.37
2023-03-06T02:51:02.325Z,99984.94
2023-03-06T02:53:30.088Z,99981.81
2023-03-06T02:55:59.655Z,99981.03
2023-03-06T02:58:27.885Z,99982.62
2023-03-06T03:00:56.087Z,99986.44
2023-03-06T03:03:23.951Z,99990.25
2023-03-06T03:05:53.029Z,99987.47
2023-03-06T03:08:21.955Z,99987.09
2023-03-06T03:10:51.593Z,99989.69
2023-03-06T03:13:20.108Z,99997.69
2023-03-06T03:16:05.241Z,99989.06
2023-03-06T03:18:35.698Z,99989.62
2023-03-06T03:21:08.264Z,99985.47
2023-03-06T03:23:36.544Z,99986.94
2023-03-06T03:26:15.897Z,99986.94
2023-03-06T03:28:44.324Z,99989.22
2023-03-06T03:31:13.648Z,99991.31
2023-03-06T03:33:41.787Z,99982.47
2023-03-06T03:36:10.619Z,99986.28
2023-03-06T03:38:39.016Z,99984.28
2023-03-06T03:41:06.683Z,99978.06
2023-03-06T03:43:34.791Z,99982.91
2023-03-06T03:46:02.474Z,99979.88
2023-03-06T03:48:30.275Z,99981.38
2023-03-06T03:51:12.398Z,99972.38
2023-03-06T03:53:41.155Z,99979.78
2023-03-06T03:56:10.591Z,99979.47
2023-03-06T03:58:39.940Z,99977.97
2023-03-06T04:01:08.426Z,99975.94
2023-03-06T04:03:37.027Z,99981.69
2023-03-06T04:06:05.100Z,99981.13
2023-03-06T04:08:33.154Z,99979.44
2023-03-06T04:11:01.515Z,99981.13
2023-03-06T04:13:30.418Z,99971.91
2023-03-06T04:15:59.736Z,99968.31
2023-03-06T04:18:30.958Z,99971.47
2023-03-06T04:20:59.244Z,99970.34
2023-03-06T04:23:28.005Z,99960.56
2023-03-06T04:25:55.818Z,99962.69
2023-03-06T04:28:23.754Z,99969.87
2023-03-06T04:30:52.157Z,99958.53
2023-03-06T04:33:20.257Z,99959.09
2023-03-06T04:35:48.976Z,99953.94
2023-03-06T04:38:17.606Z,99950.91
2023-03-06T04:40:45.970Z,99951.91
2023-03-06T04:43:13.876Z,99953.47
2023-03-06T04:45:41.890Z,99951.66
2023-03-06T04:48:13.004Z,99949.88
2023-03-06T04:50:40.746Z,99951.44
2023-03-06T04:53:09.102Z,99951.91
2023-03-06T04:55:36.860Z,99950.53
2023-03-06T04:58:04.873Z,99951.34
2023-03-06T05:00:32.921Z,99950.91
2023-03-06T05:03:01.937Z,99951.22
2023-03-06T05:05:30.431Z,99955.81
2023-03-06T05:07:58.476Z,99962.87
2023-03-06T05:10:26.291Z,99956.69
2023-03-06T05:12:54.237Z,99958.78
2023-03-06T05:15:22.344Z,99959.09
2023-03-06T05:17:50.188Z,99962.28
2023-03-06T05:20:18.251Z,99962.59
2023-03-06T05:22:46.346Z,99963.13
2023-03-06T05:25:14.436Z,99954.91
2023-03-06T05:27:42.599Z,99960.09
2023-03-06T05:30:13.770Z,99960.63
2023-03-06T05:32:41.688Z,99962.75
2023-03-06T05:35:19.935Z,99964.41
2023-03-06T05:37:48.872Z,99963.37
2023-03-06T05:40:17.354Z,99962.59
2023-03-06T05:42:45.077Z,99969.09
2023-03-06T05:45:13.078Z,99962.66
2023-03-06T05:47:40.829Z,99967.59
2023-03-06T05:50:10.605Z,99967.59
2023-03-06T05:52:39.906Z,99967.16
2023-03-06T05:55:11.924Z,99966.69
2023-03-06T05:57:40.037Z,99971.37
2023-03-06T06:00:09.256Z,99971.16
2023-03-06T06:02:41.239Z,99966.75
2023-03-06T06:05:12.550Z,99967.31
2023-03-06T06:07:41.190Z,99971.47
2023-03-06T06:10:11.025Z,99975.12
2023-03-06T06:12:38.801Z,99970.28
2023-03-06T06:15:07.184Z,99976.22
2023-03-06T06:17:35.221Z,99980.94
2023-03-06T06:20:03.554Z,99978.91
2023-03-06T06:22:31.311Z,99983.91
2023-03-06T06:24:59.345Z,99989.00
2023-03-06T06:27:27.036Z,99987.56
2023-03-06T06:29:54.730Z,99993.13
2023-03-06T06:32:22.782Z,99986.78
2023-03-06T06:34:50.550Z,99995.16
2023-03-06T06:37:18.202Z,99996.78
2023-03-06T06:39:46.274Z,99987.56
2023-03-06T06:42:31.589Z,99992.00
2023-03-06T06:45:03.062Z,99994.41
2023-03-06T06:47:31.250Z,99993.47
2023-03-06T06:49:59.006Z,99992.50
2023-03-06T06:52:27.308Z,99988.41
2023-03-06T06:54:55.125Z,99991.84
2023-03-06T06:57:22.904Z,100001.22
2023-03-06T06:59:53.624Z,99999.72
2023-03-06T07:02:22.351Z,100007.56
2023-03-06T07:05:03.102Z,99999.03
2023-03-06T07:07:35.121Z,99997.53
2023-03-06T07:10:08.647Z,100002.78
2023-03-06T07:12:37.072Z,100001.78
2023-03-06T07:15:06.303Z,100002.09
2023-03-06T07:17:34.446Z,100004.19
2023-03-06T07:20:02.836Z,100009.66
2023-03-06T07:22:41.466Z,100009.44
2023-03-06T07:25:13.338Z,100010.50
2023-03-06T07:27:41.079Z,100007.19
2023-03-06T07:30:11.981Z,100013.44
2023-03-06T07:32:40.197Z,100017.34
2023-03-06T07:35:22.012Z,100010.88
2023-03-06T07:37:51.188Z,100014.56
2023-03-06T07:40:19.968Z,100017.44
2023-03-06T07:42:47.868Z,100014.63
2023-03-06T07:45:17.409Z,100011.28
2023-03-06T07:47:45.544Z,100013.13
2023-03-06T07:50:13.528Z,100020.19
2023-03-06T07:52:41.604Z,100024.84
2023-03-06T07:55:10.393Z,100018.41
2023-03-06T07:57:38.674Z,100031.91
2023-03-06T08:00:11.056Z,100023.87
2023-03-06T08:02:42.192Z,100030.59
2023-03-06T08:05:13.977Z,100035.31
2023-03-06T08:07:42.980Z,100040.00
2023-03-06T08:10:14.727Z,100038.72
2023-03-06T08:12:42.660Z,100034.06
2023-03-06T08:15:11.676Z,100037.94
2023-03-06T08:17:40.464Z,100038.72
2023-03-06T08:20:10.435Z,100041.06
2023-03-06T08:22:38.612Z,100041.59
2023-03-06T08:25:07.644Z,100043.19
2023-03-06T08:27:35.915Z,100044.75
2023-03-06T08:30:04.165Z,100045.28
2023-03-06T08:32:35.417Z,100045.81
2023-03-06T08:35:04.455Z,100043.50
2023-03-06T08:37:32.554Z,100039.38
2023-03-06T08:40:00.341Z,100041.47
2023-03-06T08:42:28.121Z,100046.41
2023-03-06T08:44:56.142Z,100039.41
2023-03-06T08:47:23.947Z,100042.56
2023-03-06T08:49:51.815Z,100043.87
2023-03-06T08:52:20.107Z,100051.88
2023-03-06T08:54:47.876Z,100047.22
2023-03-06T08:57:15.699Z,100044.91
2023-03-06T08:59:43.961Z,100044.66
2023-03-06T09:02:15.361Z,100050.66
2023-03-06T09:04:43.368Z,100048.84
2023-03-06T09:07:11.152Z,100054.31
2023-03-06T09:09:38.942Z,100052.78
2023-03-06T09:12:07.354Z,100050.97
2023-03-06T09:14:35.015Z,100051.50
2023-03-06T09:17:02.744Z,100045.25
2023-03-06T09:19:30.835Z,100053.34
2023-03-06T09:22:01.055Z,100055.69
2023-03-06T09:24:28.938Z,100051.56
2023-03-06T09:26:56.989Z,100051.34
2023-03-06T09:29:24.782Z,100050.56
2023-03-06T09:31:52.513Z,100057.06
2023-03-06T09:34:21.056Z,100053.69
2023-03-06T09:36:56.424Z,100060.50
2023-03-06T09:39:26.326Z,100067.78
2023-03-06T09:41:55.428Z,100061.56
2023-03-06T09:44:26.071Z,100059.47
2023-03-06T09:47:00.051Z,100052.50
2023-03-06T09:49:52.068Z,100047.81
2023-03-06T09:52:37.354Z,100050.69
2023-03-06T09:55:05.156Z,100052.78
2023-03-06T09:58:07.432Z,100055.41
2023-03-06T10:00:39.850Z,100050.75
2023-03-06T10:03:29.670Z,100048.69
2023-03-06T10:05:58.210Z,100048.44
2023-03-06T10:08:38.190Z,100045.62
2023-03-06T10:11:10.665Z,100054.44
2023-03-06T10:13:43.360Z,100052.88
2023-03-06T10:16:31.774Z,100051.06
2023-03-06T10:19:03.357Z,100051.59
2023-03-06T10:21:53.242Z,100049.75
2023-03-06T10:24:25.111Z,100052.34
2023-03-06T10:27:10.534Z,100053.91
2023-03-06T10:30:03.518Z,100058.59
2023-03-06T10:32:56.232Z,100051.56
2023-03-06T10:35:30.636Z,100054.44
2023-03-06T10:38:18.881Z,100044.03
2023-03-06T10:41:01.032Z,100044.56
2023-03-06T10:43:28.762Z,100045.13
2023-03-06T10:45:56.944Z,100045.13
2023-03-06T10:48:27.772Z,100041.19
2023-03-06T10:51:25.443Z,100040.94
2023-03-06T10:53:53.433Z,100039.38
2023-03-06T10:56:30.275Z,100035.50
2023-03-06T10:59:18.448Z,100037.03
2023-03-06T11:01:49.083Z,100033.37
2023-03-06T11:04:37.531Z,100025.84
2023-03-06T11:07:19.413Z,100029.75
2023-03-06T11:09:57.031Z,100026.38
2023-03-06T11:12:32.816Z,100015.47
2023-03-06T11:15:07.108Z,100008.22
2023-03-06T11:17:37.806Z,100003.53
2023-03-06T11:20:14.962Z,99998.91
2023-03-06T11:22:49.300Z,99989.06
2023-03-06T11:25:20.651Z,99998.66
2023-03-06T11:27:56.017Z,99989.06
2023-03-06T11:30:30.413Z,99983.06
2023-03-06T11:33:14.316Z,99983.59
2023-03-06T11:36:29.627Z,99980.72
2023-03-06T11:38:57.976Z,99974.00
2023-03-06T11:41:37.874Z,99965.66
2023-03-06T11:44:25.800Z,99968.78
2023-03-06T11:47:05.813Z,99960.72
2023-03-06T11:49:49.761Z,99955.78
2023-03-06T11:52:34.439Z,99946.69
2023-03-06T11:55:02.390Z,99948.00
2023-03-06T11:57:37.251Z,99941.22
2023-03-06T12:00:20.723Z,99939.13
2023-03-06T12:03:28.545Z,99930.81
2023-03-06T12:06:21.274Z,99927.16
2023-03-06T12:09:18.497Z,99921.44
2023-03-06T12:11:48.719Z,99916.78
2023-03-06T12:14:35.502Z,99920.41
2023-03-06T12:17:14.045Z,99912.88
2023-03-06T12:19:53.412Z,99906.62
2023-03-06T12:22:33.634Z,99901.69
2023-03-06T12:25:31.044Z,99895.44
2023-03-06T12:28:04.933Z,99888.94
2023-03-06T12:31:02.414Z,99885.03
2023-03-06T12:33:53.338Z,99880.09
2023-03-06T12:37:05.746Z,99878.53
2023-03-06T12:39:42.231Z,99878.81
2023-03-06T12:42:22.979Z,99872.59
2023-03-06T12:45:03.537Z,99874.62
2023-03-06T12:47:38.052Z,99862.69
2023-03-06T12:50:22.452Z,99867.88
2023-03-06T12:52:52.463Z,99873.34
2023-03-06T12:55:24.959Z,99867.88
2023-03-06T12:57:54.220Z,99870.47
2023-03-06T13:00:37.256Z,99852.00
2023-03-06T13:03:34.307Z,99865.78
2023-03-06T13:06:14.008Z,99852.53
2023-03-06T13:09:09.210Z,99850.72
2023-03-06T13:11:57.568Z,99851.72
2023-03-06T13:14:54.220Z,99842.09
2023-03-06T13:17:38.799Z,99831.97
2023-03-06T13:20:16.386Z,99826.72
2023-03-06T13:22:46.051Z,99813.47
2023-03-06T13:25:19.870Z,99806.19
2023-03-06T13:28:07.827Z,99799.91
2023-03-06T13:30:38.301Z,99791.00
2023-03-06T13:33:25.881Z,99797.81
2023-03-06T13:35:58.617Z,99800.69
2023-03-06T13:38:31.737Z,99791.28
2023-03-06T13:41:25.039Z,99785.03
2023-03-06T13:43:55.699Z,99780.63
2023-03-06T13:46:35.429Z,99783.25
2023-03-06T13:49:24.221Z,99780.94
2023-03-06T13:51:52.165Z,99766.09
2023-03-06T13:54:32.120Z,99775.94
2023-03-06T13:57:07.493Z,99766.31
2023-03-06T14:00:14.510Z,99753.84
2023-03-06T14:03:20.383Z,99751.25
2023-03-06T14:05:50.031Z,99743.44
2023-03-06T14:08:24.768Z,99736.47
2023-03-06T14:11:16.732Z,99742.47
2023-03-06T14:13:51.736Z,99745.62
2023-03-06T14:16:47.432Z,99744.06
2023-03-06T14:19:19.003Z,99744.59
2023-03-06T14:21:51.192Z,99742.81
2023-03-06T14:24:27.034Z,99731.12
2023-03-06T14:26:54.695Z,99731.91
2023-03-06T14:29:29.460Z,99727.50
2023-03-06T14:32:00.120Z,99724.13
2023-03-06T14:34:32.374Z,99734.31
2023-03-06T14:37:07.716Z,99724.41
2023-03-06T14:39:43.265Z,99724.94
2023-03-06T14:42:20.068Z,99726.22
2023-03-06T14:44:59.789Z,99716.88
2023-03-06T14:47:31.487Z,99718.16
2023-03-06T14:50:23.280Z,99713.75
2023-03-06T14:52:53.976Z,99716.38
2023-03-06T14:55:24.683Z,99711.16
2023-03-06T14:58:03.423Z,99710.91
2023-03-06T15:00:38.352Z,99705.97
2023-03-06T15:03:09.300Z,99700.28
2023-03-06T15:05:37.838Z,99697.41
2023-03-06T15:08:09.108Z,99692.75
2023-03-06T15:10:37.481Z,99691.44
2023-03-06T15:13:21.389Z,99691.19
2023-03-06T15:16:05.941Z,99696.37
2023-03-06T15:18:40.697Z,99696.37
2023-03-06T15:21:15.041Z,99693.03
2023-03-06T15:23:48.119Z,99685.50
2023-03-06T15:26:33.039Z,99694.59
2023-03-06T15:29:10.754Z,99695.38
2023-03-06T15:31:42.168Z,99697.72
2023-03-06T15:34:09.869Z,99699.53
2023-03-06T15:36:40.425Z,99690.19
2023-03-06T15:39:28.784Z,99686.53
2023-03-06T15:42:20.471Z,99683.94
2023-03-06T15:44:54.592Z,99688.63
2023-03-06T15:47:23.562Z,99691.50
2023-03-06T15:49:53.349Z,99693.59
2023-03-06T15:52:22.078Z,99694.91
2023-03-06T15:54:50.273Z,99690.22
2023-03-06T15:57:25.018Z,99682.44
2023-03-06T15:59:53.663Z,99676.22
2023-03-06T16:02:23.334Z,99684.25
2023-03-06T16:04:53.523Z,99675.13
2023-03-06T16:07:21.379Z,99682.94
2023-03-06T16:09:49.308Z,99676.44
2023-03-06T16:12:19.862Z,99678.78
2023-03-06T16:14:48.779Z,99667.91
2023-03-06T16:17:17.382Z,99671.53
2023-03-06T16:19:45.955Z,99671.53
2023-03-06T16:22:14.534Z,99668.41
2023-03-06T16:24:43.405Z,99663.22
2023-03-06T16:27:18.957Z,99667.91
2023-03-06T16:29:46.964Z,99665.03
2023-03-06T16:32:15.287Z,99661.12
2023-03-06T16:34:43.207Z,99658.53
2023-03-06T16:37:13.249Z,99649.47
2023-03-06T16:39:42.172Z,99639.09
2023-03-06T16:42:11.453Z,99633.09
2023-03-06T16:44:39.098Z,99635.69
2023-03-06T16:47:10.819Z,99638.81
2023-03-06T16:49:38.843Z,99634.66
2023-03-06T16:52:08.555Z,99631.56
2023-03-06T16:54:36.233Z,99631.31
2023-03-06T16:57:04.211Z,99626.38
2023-03-06T16:59:32.661Z,99625.56
2023-03-06T17:02:00.567Z,99616.25
2023-03-06T17:04:28.251Z,99610.53
2023-03-06T17:06:56.306Z,99611.31
2023-03-06T17:09:24.324Z,99604.03
2023-03-06T17:11:51.904Z,99604.53
2023-03-06T17:14:20.589Z,99599.09
2023-03-06T17:16:48.531Z,99601.44
2023-03-06T17:19:16.381Z,99596.75
2023-03-06T17:21:44.428Z,99605.59
2023-03-06T17:24:12.123Z,99604.28
2023-03-06T17:26:40.301Z,99605.34
2023-03-06T17:29:09.641Z,99594.16
2023-03-06T17:31:37.372Z,99599.66
2023-03-06T17:34:05.690Z,99594.47
2023-03-06T17:36:34.689Z,99587.97
2023-03-06T17:39:03.152Z,99589.53
2023-03-06T17:41:32.974Z,99581.50
2023-03-06T17:44:01.945Z,99575.50
2023-03-06T17:46:32.142Z,99576.28
2023-03-06T17:49:00.953Z,99570.56
2023-03-06T17:51:29.023Z,99570.84
2023-03-06T17:53:57.504Z,99573.97
2023-03-06T17:56:25.701Z,99580.19
2023-03-06T17:58:53.807Z,99581.25
2023-03-06T18:01:27.430Z,99570.06
2023-03-06T18:03:55.749Z,99576.31
2023-03-06T18:06:24.922Z,99568.28
2023-03-06T18:08:53.182Z,99566.44
2023-03-06T18:11:21.830Z,99564.09
2023-03-06T18:13:50.703Z,99572.91
2023-03-06T18:16:21.492Z,99567.72
2023-03-06T18:18:55.429Z,99574.47
2023-03-06T18:21:24.080Z,99566.69
2023-03-06T18:23:52.661Z,99591.09
2023-03-06T18:26:23.478Z,99585.38
2023-03-06T18:28:56.317Z,99577.84
2023-03-06T18:31:27.960Z,99583.84
2023-03-06T18:34:00.838Z,99577.09
2023-03-06T18:36:31.808Z,99580.72
2023-03-06T18:39:03.719Z,99586.94
2023-03-06T18:41:32.211Z,99583.31
2023-03-06T18:44:01.537Z,99580.72
2023-03-06T18:46:33.181Z,99580.72
2023-03-06T18:49:03.481Z,99578.12
2023-03-06T18:51:32.856Z,99579.44
2023-03-06T18:54:03.835Z,99577.59
2023-03-06T18:56:32.438Z,99583.31
2023-03-06T18:59:02.939Z,99582.28
2023-03-06T19:01:31.911Z,99581.75
2023-03-06T19:04:02.308Z,99581.25
2023-03-06T19:06:31.277Z,99585.91
2023-03-06T19:09:01.831Z,99589.56
2023-03-06T19:11:30.957Z,99579.44
2023-03-06T19:13:59.772Z,99581.75
2023-03-06T19:16:30.536Z,99580.72
2023-03-06T19:18:59.264Z,99579.16
2023-03-06T19:21:28.701Z,99567.22
2023-03-06T19:23:57.570Z,99575.00
2023-03-06T19:26:28.334Z,99571.91
2023-03-06T19:28:56.640Z,99576.31
2023-03-06T19:31:27.120Z,99575.50
2023-03-06T19:33:56.903Z,99575.50
2023-03-06T19:36:28.814Z,99574.75
2023-03-06T19:38:59.274Z,99570.31
2023-03-06T19:41:28.060Z,99580.72
2023-03-06T19:43:58.954Z,99566.97
2023-03-06T19:46:27.579Z,99577.59
2023-03-06T19:49:00.964Z,99575.00
2023-03-06T19:51:29.587Z,99572.16
2023-03-06T19:53:58.506Z,99573.97
2023-03-06T19:56:28.936Z,99575.50
2023-03-06T19:58:58.169Z,99579.94
2023-03-06T20:01:27.780Z,99580.72
2023-03-06T20:04:00.423Z,99576.56
2023-03-06T20:06:33.826Z,99578.12
2023-03-06T20:09:06.173Z,99583.31
2023-03-06T20:11:34.280Z,99578.12
2023-03-06T20:14:04.771Z,99583.31
2023-03-06T20:16:33.366Z,99580.19
2023-03-06T20:19:02.148Z,99579.44
2023-03-06T20:21:33.402Z,99580.72
2023-03-06T20:24:01.735Z,99574.25
2023-03-06T20:26:30.914Z,99572.41
2023-03-06T20:28:59.801Z,99572.41
2023-03-06T20:31:30.269Z,99572.41
2023-03-06T20:33:59.793Z,99577.34
2023-03-06T20:36:31.221Z,99564.38
2023-03-06T20:39:00.404Z,99567.22
2023-03-06T20:41:30.387Z,99569.56
2023-03-06T20:43:59.890Z,99564.88
2023-03-06T20:46:28.493Z,99559.69
2023-03-06T20:48:58.011Z,99563.84
2023-03-06T20:51:28.774Z,99557.91
2023-03-06T20:53:57.499Z,99557.91
2023-03-06T20:56:29.248Z,99553.47
2023-03-06T20:58:58.230Z,99540.50
2023-03-06T21:01:26.292Z,99534.53
2023-03-06T21:03:55.091Z,99533.75
2023-03-06T21:06:24.538Z,99533.75
2023-03-06T21:08:52.891Z,99538.94
2023-03-06T21:11:20.845Z,99543.09
2023-03-06T21:13:49.017Z,99547.53
2023-03-06T21:16:19.535Z,99542.59
2023-03-06T21:18:47.971Z,99553.22
2023-03-06T21:21:19.212Z,99558.16
2023-03-06T21:23:48.534Z,99575.25
2023-03-06T21:26:25.576Z,99576.06
2023-03-06T21:28:54.402Z,99579.69
2023-03-06T21:31:23.008Z,99591.09
2023-03-06T21:33:51.691Z,99605.63
2023-03-06T21:36:21.746Z,99599.16
2023-03-06T21:38:51.345Z,99607.47
2023-03-06T21:41:27.825Z,99618.88
2023-03-06T21:43:58.463Z,99613.66
2023-03-06T21:46:27.284Z,99609.25
2023-03-06T21:48:56.399Z,99612.66
2023-03-06T21:51:25.885Z,99621.19
2023-03-06T21:53:54.815Z,99618.34
2023-03-06T21:56:25.565Z,99617.03
2023-03-06T21:58:54.670Z,99607.72
2023-03-06T22:01:28.471Z,99613.16
2023-03-06T22:03:58.591Z,99614.97
2023-03-06T22:06:27.659Z,99622.25
2023-03-06T22:08:57.402Z,99629.25
2023-03-06T22:11:27.574Z,99625.63
2023-03-06T22:13:55.343Z,99622.50
2023-03-06T22:16:23.159Z,99624.56
2023-03-06T22:18:52.418Z,99610.06
2023-03-06T22:21:22.013Z,99610.06
2023-03-06T22:23:59.832Z,99603.03
2023-03-06T22:26:29.497Z,99609.28
2023-03-06T22:28:57.397Z,99607.19
2023-03-06T22:31:28.797Z,99613.41
2023-03-06T22:33:59.212Z,99621.19
2023-03-06T22:36:28.310Z,99619.66
2023-03-06T22:38:58.969Z,99618.09
2023-03-06T22:41:27.793Z,99615.75
2023-03-06T22:44:00.628Z,99615.22
2023-03-06T22:46:29.139Z,99607.72
2023-03-06T22:48:58.193Z,99592.41
2023-03-06T22:51:27.438Z,99594.22
2023-03-06T22:53:55.721Z,99575.03
2023-03-06T22:56:24.425Z,99577.88
2023-03-06T22:58:52.345Z,99593.19
2023-03-06T23:01:23.429Z,99612.37
2023-03-06T23:03:53.820Z,99616.53
2023-03-06T23:06:24.954Z,99611.59
2023-03-06T23:08:59.818Z,99606.16
2023-03-06T23:11:28.735Z,99607.44
2023-03-06T23:14:16.306Z,99611.87
2023-03-06T23:17:02.823Z,99616.00
2023-03-06T23:19:49.848Z,99612.37
2023-03-06T23:22:36.318Z,99617.06
2023-03-06T23:25:22.490Z,99620.16
2023-03-06T23:27:50.650Z,99622.75
2023-03-06T23:30:18.689Z,99630.53
2023-03-06T23:32:46.297Z,99634.69
2023-03-06T23:35:14.536Z,99626.13
2023-03-06T23:37:42.266Z,99624.03
2023-03-06T23:40:10.633Z,99613.41
2023-03-06T23:42:38.847Z,99602.50
2023-03-06T23:45:07.477Z,99594.22
2023-03-06T23:47:35.141Z,99605.63
2023-03-06T23:50:03.195Z,99607.69
2023-03-06T23:52:30.858Z,99609.25
2023-03-06T23:54:58.551Z,99610.81
2023-03-06T23:57:26.487Z,99614.44
2023-03-06T23:59:54.154Z,99618.59
